Time;durP1;ratioP1;P1;durP2;ratioP2;P2;SDS_P1;SDS_P2;PMS_P1;PMS_P2;Temp;Humidity;BMP_temperature;BMP_pressure;BME280_temperature;BME280_humidity;BME280_pressure;Samples;Min_cycle;Max_cycle;Signal;HPM_P1;HPM_P2
2022/11/21 00:00:14;;;;;;;13.75;2.00;;;;;;;;;;6301965;22;20007;-93
2022/11/21 00:02:39;;;;;;;12.05;2.28;;;;;;;;;;6302911;22;20494;-94
2022/11/21 00:05:05;;;;;;;13.25;2.20;;;;;;;;;;6304670;22;20278;-93
2022/11/21 00:07:30;;;;;;;15.50;2.13;;;;;;;;;;6302284;22;20003;-94
2022/11/21 00:09:55;;;;;;;13.32;1.67;;;;;;;;;;6301960;22;19999;-94
2022/11/21 00:12:20;;;;;;;13.02;1.73;;;;;;;;;;6300589;22;19995;-93
2022/11/21 00:14:46;;;;;;;10.63;1.90;;;;;;;;;;6300797;22;20006;-92
2022/11/21 00:17:11;;;;;;;12.57;2.60;;;;;;;;;;6299098;22;20237;-93
2022/11/21 00:19:36;;;;;;;11.87;1.80;;;;;;;;;;6300861;22;20019;-93
2022/11/21 00:22:01;;;;;;;12.38;2.10;;;;;;;;;;6298525;22;20279;-93
2022/11/21 00:24:27;;;;;;;9.98;1.80;;;;;;;;;;6300087;22;19995;-93
2022/11/21 00:26:52;;;;;;;12.65;2.13;;;;;;;;;;6299668;22;19999;-93
2022/11/21 00:29:17;;;;;;;12.68;2.13;;;;;;;;;;6301820;22;19999;-93
2022/11/21 00:31:44;;;;;;;11.10;1.67;;;;;;;;;;6318049;22;20432;-93
2022/11/21 00:34:09;;;;;;;10.73;1.98;;;;;;;;;;6304732;22;20089;-94
2022/11/21 00:36:34;;;;;;;12.32;1.88;;;;;;;;;;6303268;22;20035;-93
2022/11/21 00:38:59;;;;;;;11.30;1.83;;;;;;;;;;6304027;22;20444;-93
2022/11/21 00:41:25;;;;;;;7.75;1.73;;;;;;;;;;6304290;22;20003;-92
2022/11/21 00:43:50;;;;;;;12.43;2.63;;;;;;;;;;6303505;22;20003;-93
2022/11/21 00:46:15;;;;;;;8.10;2.15;;;;;;;;;;6303445;22;20318;-93
2022/11/21 00:48:40;;;;;;;12.98;2.05;;;;;;;;;;6302812;22;20189;-93
2022/11/21 00:51:06;;;;;;;10.00;1.45;;;;;;;;;;6331058;22;20003;-93
2022/11/21 00:53:31;;;;;;;9.20;1.30;;;;;;;;;;6332343;22;19999;-93
2022/11/21 00:55:56;;;;;;;17.85;1.65;;;;;;;;;;6303198;22;20006;-93
2022/11/21 00:58:21;;;;;;;7.93;1.30;;;;;;;;;;6303727;22;20062;-93
2022/11/21 01:00:47;;;;;;;7.90;1.30;;;;;;;;;;6331998;22;20488;-93
2022/11/21 01:03:12;;;;;;;10.05;2.00;;;;;;;;;;6330646;22;19995;-92
2022/11/21 01:05:37;;;;;;;10.98;1.50;;;;;;;;;;6302478;22;20117;-92
2022/11/21 01:08:03;;;;;;;11.13;1.60;;;;;;;;;;6331260;22;20003;-94
2022/11/21 01:10:28;;;;;;;12.32;1.52;;;;;;;;;;6303242;22;20234;-92
2022/11/21 01:12:54;;;;;;;8.65;1.60;;;;;;;;;;6302487;22;20033;-92
2022/11/21 01:15:19;;;;;;;8.50;1.42;;;;;;;;;;6331383;22;20002;-93
2022/11/21 01:17:45;;;;;;;7.93;1.33;;;;;;;;;;6302591;22;20455;-93
2022/11/21 01:20:10;;;;;;;11.88;1.60;;;;;;;;;;6328830;22;20582;-93
2022/11/21 01:22:35;;;;;;;9.73;1.38;;;;;;;;;;6302070;22;19998;-93
2022/11/21 01:25:00;;;;;;;9.37;1.87;;;;;;;;;;6331133;22;20003;-93
2022/11/21 01:27:26;;;;;;;7.57;1.20;;;;;;;;;;6331102;22;20234;-94
2022/11/21 01:29:51;;;;;;;10.03;1.47;;;;;;;;;;6302781;22;20231;-94
2022/11/21 01:32:17;;;;;;;8.77;1.30;;;;;;;;;;6301648;22;20239;-93
2022/11/21 01:34:42;;;;;;;10.90;1.23;;;;;;;;;;6331575;22;19990;-93
2022/11/21 01:37:07;;;;;;;8.07;1.17;;;;;;;;;;6303009;22;20014;-93
2022/11/21 01:39:32;;;;;;;8.40;1.63;;;;;;;;;;6303202;22;20003;-92
2022/11/21 01:41:58;;;;;;;9.50;1.20;;;;;;;;;;6302364;22;20325;-93
2022/11/21 01:44:23;;;;;;;7.15;1.67;;;;;;;;;;6304077;22;20416;-93
2022/11/21 01:46:49;;;;;;;7.30;1.10;;;;;;;;;;6332641;22;20097;-93
2022/11/21 01:49:14;;;;;;;8.32;1.23;;;;;;;;;;6302972;22;20318;-93
2022/11/21 01:51:42;;;;;;;12.87;1.90;;;;;;;;;;6301679;22;20105;-94
2022/11/21 01:54:27;;;;;;;7.00;1.30;;;;;;;;;;6303624;22;20010;-93
2022/11/21 01:56:58;;;;;;;11.75;1.60;;;;;;;;;;6301030;22;20475;-92
2022/11/21 01:59:26;;;;;;;9.98;1.73;;;;;;;;;;6305782;22;19998;-93
2022/11/21 02:01:52;;;;;;;8.85;1.42;;;;;;;;;;6303874;22;20010;-92
2022/11/21 02:04:18;;;;;;;8.57;1.55;;;;;;;;;;6332529;22;20006;-93
2022/11/21 02:06:43;;;;;;;9.25;1.48;;;;;;;;;;6305049;22;20444;-92
2022/11/21 02:09:09;;;;;;;6.33;1.17;;;;;;;;;;6332525;22;19995;-93
2022/11/21 02:11:40;;;;;;;12.55;1.90;;;;;;;;;;6303759;22;20280;-93
2022/11/21 02:14:05;;;;;;;9.57;1.35;;;;;;;;;;6332647;22;20006;-93
2022/11/21 02:16:32;;;;;;;8.67;1.17;;;;;;;;;;6331743;22;20564;-93
2022/11/21 02:18:57;;;;;;;6.68;1.45;;;;;;;;;;6303022;22;20227;-93
2022/11/21 02:21:28;;;;;;;5.20;0.95;;;;;;;;;;6331583;22;20085;-92
2022/11/21 02:24:15;;;;;;;6.60;1.20;;;;;;;;;;6304070;22;20000;-92
2022/11/21 02:26:41;;;;;;;9.82;1.60;;;;;;;;;;6304401;22;19998;-92
2022/11/21 02:29:06;;;;;;;10.23;1.70;;;;;;;;;;6304813;22;20003;-92
2022/11/21 02:31:31;;;;;;;10.10;2.22;;;;;;;;;;6332090;22;20093;-93
2022/11/21 02:33:57;;;;;;;6.93;1.45;;;;;;;;;;6332824;22;20448;-92
2022/11/21 02:36:36;;;;;;;9.98;1.90;;;;;;;;;;6304654;22;20021;-92
2022/11/21 02:39:01;;;;;;;8.40;1.38;;;;;;;;;;6304387;22;20022;-93
2022/11/21 02:41:28;;;;;;;8.13;1.50;;;;;;;;;;6304069;22;20055;-92
2022/11/21 02:43:53;;;;;;;10.75;1.75;;;;;;;;;;6332499;22;20018;-93
2022/11/21 02:46:18;;;;;;;13.30;2.43;;;;;;;;;;6333022;22;19999;-93
2022/11/21 02:48:44;;;;;;;7.00;1.37;;;;;;;;;;6332335;22;20211;-93
2022/11/21 02:51:09;;;;;;;7.10;1.30;;;;;;;;;;6331087;22;20227;-94
2022/11/21 02:53:34;;;;;;;11.80;1.63;;;;;;;;;;6304688;22;20243;-93
2022/11/21 02:55:59;;;;;;;9.75;1.63;;;;;;;;;;6304188;22;20007;-93
2022/11/21 02:58:25;;;;;;;10.80;1.53;;;;;;;;;;6303091;22;20037;-93
2022/11/21 03:03:25;;;;;;;13.70;1.88;;;;;;;;;;6314056;22;20023;-90
2022/11/21 03:05:53;;;;;;;8.68;1.65;;;;;;;;;;6319874;22;20049;-92
2022/11/21 03:08:18;;;;;;;8.88;1.60;;;;;;;;;;6318540;22;20059;-93
2022/11/21 03:10:43;;;;;;;7.78;1.60;;;;;;;;;;6324003;22;20010;-91
2022/11/21 03:13:08;;;;;;;6.83;1.50;;;;;;;;;;6323436;22;20013;-92
2022/11/21 03:15:34;;;;;;;10.60;1.88;;;;;;;;;;6323575;22;20267;-91
2022/11/21 03:18:01;;;;;;;7.47;1.40;;;;;;;;;;6324153;22;19998;-91
2022/11/21 03:20:26;;;;;;;9.65;1.60;;;;;;;;;;6351226;22;19999;-92
2022/11/21 03:22:52;;;;;;;11.15;1.48;;;;;;;;;;6323508;22;20030;-91
2022/11/21 03:25:19;;;;;;;6.95;1.58;;;;;;;;;;6323615;22;20007;-91
2022/11/21 03:27:44;;;;;;;10.45;1.60;;;;;;;;;;6311742;22;20439;-93
2022/11/21 03:30:10;;;;;;;10.57;1.65;;;;;;;;;;6310572;22;20003;-94
2022/11/21 03:32:36;;;;;;;10.77;1.80;;;;;;;;;;6310355;22;20086;-93
2022/11/21 03:35:03;;;;;;;8.40;1.30;;;;;;;;;;6317256;22;20059;-93
2022/11/21 03:37:29;;;;;;;9.32;1.48;;;;;;;;;;6309192;22;20056;-93
2022/11/21 03:39:57;;;;;;;6.20;1.38;;;;;;;;;;6309839;22;20371;-92
2022/11/21 03:42:22;;;;;;;8.20;1.48;;;;;;;;;;6311054;22;19998;-93
2022/11/21 03:44:48;;;;;;;12.70;1.50;;;;;;;;;;6312912;22;20020;-93
2022/11/21 03:47:13;;;;;;;8.80;1.47;;;;;;;;;;6337632;22;20009;-93
2022/11/21 03:49:40;;;;;;;7.47;1.50;;;;;;;;;;6309285;22;20259;-93
2022/11/21 03:52:06;;;;;;;8.23;1.50;;;;;;;;;;6334360;22;20533;-93
2022/11/21 03:54:31;;;;;;;9.88;1.67;;;;;;;;;;6309363;22;20010;-93
2022/11/21 03:56:57;;;;;;;9.63;1.50;;;;;;;;;;6307833;22;20388;-93
2022/11/21 03:59:25;;;;;;;10.07;1.52;;;;;;;;;;6336226;22;20340;-93
2022/11/21 04:01:50;;;;;;;8.77;1.35;;;;;;;;;;6309076;22;20408;-93
2022/11/21 04:04:15;;;;;;;11.38;1.40;;;;;;;;;;6307667;22;20002;-94
2022/11/21 04:06:41;;;;;;;11.05;1.50;;;;;;;;;;6308364;22;20384;-94
2022/11/21 04:09:06;;;;;;;9.38;1.40;;;;;;;;;;6335861;22;20010;-94
2022/11/21 04:11:31;;;;;;;9.33;1.60;;;;;;;;;;6307601;22;20002;-93
2022/11/21 04:13:57;;;;;;;7.03;1.63;;;;;;;;;;6313670;22;20256;-94
2022/11/21 04:16:25;;;;;;;12.27;1.50;;;;;;;;;;6310330;22;20062;-94
2022/11/21 04:18:50;;;;;;;10.18;1.38;;;;;;;;;;6307619;22;20077;-93
2022/11/21 04:21:15;;;;;;;7.72;1.40;;;;;;;;;;6334880;22;20038;-93
2022/11/21 04:23:41;;;;;;;6.95;1.10;;;;;;;;;;6311745;22;19998;-93
2022/11/21 04:26:06;;;;;;;8.02;1.10;;;;;;;;;;6311368;22;20003;-93
2022/11/21 04:28:31;;;;;;;6.68;1.17;;;;;;;;;;6309957;22;19998;-93
2022/11/21 04:31:07;;;;;;;6.65;1.23;;;;;;;;;;6307228;22;20118;-92
2022/11/21 04:33:32;;;;;;;13.55;1.45;;;;;;;;;;6335145;22;20005;-92
2022/11/21 04:35:59;;;;;;;4.97;1.00;;;;;;;;;;6307390;22;20018;-93
2022/11/21 04:38:24;;;;;;;9.75;1.40;;;;;;;;;;6308290;22;19999;-92
2022/11/21 04:40:51;;;;;;;7.88;1.63;;;;;;;;;;6308598;22;20018;-94
2022/11/21 04:43:16;;;;;;;8.93;1.20;;;;;;;;;;6308773;22;20073;-93
2022/11/21 04:45:43;;;;;;;7.77;1.13;;;;;;;;;;6308707;22;20045;-91
2022/11/21 04:48:09;;;;;;;6.32;1.25;;;;;;;;;;6307786;22;20232;-93
2022/11/21 04:50:35;;;;;;;7.40;1.20;;;;;;;;;;6308234;22;20010;-92
2022/11/21 04:53:01;;;;;;;10.48;2.00;;;;;;;;;;6307628;22;20002;-93
2022/11/21 04:55:28;;;;;;;5.95;1.00;;;;;;;;;;6307035;22;20007;-93
2022/11/21 04:57:53;;;;;;;12.90;1.23;;;;;;;;;;6333630;22;19991;-91
2022/11/21 05:00:19;;;;;;;7.07;1.10;;;;;;;;;;6306807;22;20002;-92
2022/11/21 05:02:44;;;;;;;9.32;1.70;;;;;;;;;;6335257;22;20248;-94
2022/11/21 05:05:10;;;;;;;8.88;1.30;;;;;;;;;;6307831;22;20038;-92
2022/11/21 05:07:35;;;;;;;7.68;1.10;;;;;;;;;;6307790;22;20424;-93
2022/11/21 05:10:01;;;;;;;10.68;1.42;;;;;;;;;;6307305;22;19995;-93
2022/11/21 05:15:10;;;;;;;9.18;1.50;;;;;;;;;;6335248;22;20446;-93
2022/11/21 05:17:35;;;;;;;8.00;1.20;;;;;;;;;;6305697;22;20006;-93
2022/11/21 05:20:02;;;;;;;7.40;1.20;;;;;;;;;;6334559;22;20664;-92
2022/11/21 05:22:27;;;;;;;12.52;1.98;;;;;;;;;;6306708;22;20006;-92
2022/11/21 05:24:55;;;;;;;7.28;1.50;;;;;;;;;;6307913;22;20098;-93
2022/11/21 05:27:21;;;;;;;6.47;1.15;;;;;;;;;;6306018;22;20086;-92
2022/11/21 05:29:46;;;;;;;7.18;1.02;;;;;;;;;;6333968;22;20041;-93
2022/11/21 05:32:11;;;;;;;5.82;1.27;;;;;;;;;;6305856;22;19999;-93
2022/11/21 05:34:36;;;;;;;9.67;1.40;;;;;;;;;;6305847;22;20465;-93
2022/11/21 05:37:02;;;;;;;16.35;1.50;;;;;;;;;;6306587;22;20338;-92
2022/11/21 05:39:27;;;;;;;10.13;1.27;;;;;;;;;;6305926;22;19999;-92
2022/11/21 05:41:53;;;;;;;11.23;1.50;;;;;;;;;;6306806;22;20003;-92
2022/11/21 05:44:18;;;;;;;8.98;1.30;;;;;;;;;;6306272;22;20083;-93
2022/11/21 05:46:44;;;;;;;8.45;1.40;;;;;;;;;;6307291;22;20065;-92
2022/11/21 05:49:09;;;;;;;8.43;1.38;;;;;;;;;;6306427;22;20308;-92
2022/11/21 05:51:34;;;;;;;12.98;1.30;;;;;;;;;;6307241;22;20006;-93
2022/11/21 05:54:00;;;;;;;7.28;1.33;;;;;;;;;;6307221;22;20030;-93
2022/11/21 05:56:25;;;;;;;9.73;1.15;;;;;;;;;;6306757;22;20005;-92
2022/11/21 05:58:50;;;;;;;10.05;1.40;;;;;;;;;;6306818;22;20022;-92
2022/11/21 06:03:25;;;;;;;10.25;1.58;;;;;;;;;;6307852;22;19995;-93
2022/11/21 06:04:02;;;;;;;9.60;2.25;;;;;;;;;;6338692;22;20011;-92
2022/11/21 06:06:27;;;;;;;8.63;1.70;;;;;;;;;;6310315;22;20030;-92
2022/11/21 06:08:52;;;;;;;7.47;1.13;;;;;;;;;;6308339;22;20006;-92
2022/11/21 06:11:18;;;;;;;13.18;1.77;;;;;;;;;;6307515;22;20312;-94
2022/11/21 06:13:43;;;;;;;6.13;1.20;;;;;;;;;;6306333;22;20089;-92
2022/11/21 06:16:10;;;;;;;9.55;1.75;;;;;;;;;;6306324;22;20007;-91
2022/11/21 06:18:36;;;;;;;9.07;1.40;;;;;;;;;;6305103;22;20444;-93
2022/11/21 06:21:02;;;;;;;7.57;1.48;;;;;;;;;;6307129;22;19999;-93
2022/11/21 06:23:27;;;;;;;7.80;1.40;;;;;;;;;;6336257;22;20009;-92
2022/11/21 06:25:57;;;;;;;9.43;1.48;;;;;;;;;;6309459;22;20010;-92
2022/11/21 06:28:23;;;;;;;9.45;1.20;;;;;;;;;;6309421;22;20488;-92
2022/11/21 06:30:50;;;;;;;10.20;1.77;;;;;;;;;;6309436;22;20446;-91
2022/11/21 06:33:15;;;;;;;6.82;1.10;;;;;;;;;;6314179;22;20007;-92
2022/11/21 06:35:44;;;;;;;8.80;1.30;;;;;;;;;;6312520;22;20082;-93
2022/11/21 06:38:12;;;;;;;10.32;1.70;;;;;;;;;;6310943;22;20056;-93
2022/11/21 06:40:37;;;;;;;13.25;1.50;;;;;;;;;;6312830;22;19994;-94
2022/11/21 06:43:03;;;;;;;8.60;1.40;;;;;;;;;;6313370;22;19995;-92
2022/11/21 06:45:28;;;;;;;8.57;1.33;;;;;;;;;;6317580;22;20003;-92
2022/11/21 06:47:53;;;;;;;9.40;1.35;;;;;;;;;;6314609;22;20089;-94
2022/11/21 06:50:18;;;;;;;13.02;2.03;;;;;;;;;;6312306;22;20053;-93
2022/11/21 06:52:44;;;;;;;10.98;2.30;;;;;;;;;;6311198;22;20006;-93
2022/11/21 06:55:20;;;;;;;8.93;1.60;;;;;;;;;;6340172;22;20009;-93
2022/11/21 06:57:49;;;;;;;12.63;1.90;;;;;;;;;;6339095;22;19998;-93
2022/11/21 07:00:15;;;;;;;12.13;1.50;;;;;;;;;;6312856;22;19999;-93
2022/11/21 07:02:40;;;;;;;10.38;1.60;;;;;;;;;;6339735;22;20041;-93
2022/11/21 07:05:05;;;;;;;11.07;2.00;;;;;;;;;;6312504;22;20007;-93
2022/11/21 07:07:30;;;;;;;12.40;1.92;;;;;;;;;;6312412;22;19995;-93
2022/11/21 07:09:56;;;;;;;10.70;1.60;;;;;;;;;;6310685;22;20006;-93
2022/11/21 07:15:05;;;;;;;12.23;2.05;;;;;;;;;;6339635;22;20055;-93
2022/11/21 07:17:30;;;;;;;11.63;1.92;;;;;;;;;;6311131;22;19999;-94
2022/11/21 07:19:56;;;;;;;11.43;1.90;;;;;;;;;;6312290;22;20013;-93
2022/11/21 07:22:21;;;;;;;9.43;2.10;;;;;;;;;;6313133;22;20048;-93
2022/11/21 07:24:46;;;;;;;8.27;1.60;;;;;;;;;;6312816;22;20018;-94
2022/11/21 07:27:18;;;;;;;9.88;1.77;;;;;;;;;;6311401;22;20014;-94
2022/11/21 07:29:43;;;;;;;12.30;1.98;;;;;;;;;;6309651;22;20001;-93
2022/11/21 07:32:08;;;;;;;15.03;2.13;;;;;;;;;;6309089;22;20003;-93
2022/11/21 07:34:34;;;;;;;7.18;1.88;;;;;;;;;;6310069;22;20227;-93
2022/11/21 07:36:59;;;;;;;11.90;2.42;;;;;;;;;;6338257;22;20065;-93
2022/11/21 07:39:24;;;;;;;11.18;1.95;;;;;;;;;;6311209;22;20313;-93
2022/11/21 07:41:50;;;;;;;9.77;2.00;;;;;;;;;;6312815;22;20002;-93
2022/11/21 07:44:15;;;;;;;9.73;1.80;;;;;;;;;;6313313;22;20212;-93
2022/11/21 07:46:40;;;;;;;11.77;2.03;;;;;;;;;;6311534;22;20003;-94
2022/11/21 07:49:05;;;;;;;14.95;2.25;;;;;;;;;;6311400;22;20007;-93
2022/11/21 07:51:31;;;;;;;14.33;2.40;;;;;;;;;;6311625;22;20416;-93
2022/11/21 07:53:57;;;;;;;14.27;2.58;;;;;;;;;;6312665;22;20526;-93
2022/11/21 07:56:25;;;;;;;11.52;2.35;;;;;;;;;;6311067;22;20003;-93
2022/11/21 07:58:51;;;;;;;10.65;2.05;;;;;;;;;;6338371;22;20015;-93
2022/11/21 08:01:16;;;;;;;12.82;2.40;;;;;;;;;;6310883;22;20056;-93
2022/11/21 08:04:00;;;;;;;14.83;2.30;;;;;;;;;;6311646;22;20406;-93
2022/11/21 08:06:25;;;;;;;15.13;2.42;;;;;;;;;;6312450;22;20267;-94
2022/11/21 08:08:58;;;;;;;14.10;3.20;;;;;;;;;;6312078;22;20032;-93
2022/11/21 08:11:24;;;;;;;;;;;;;;;;;;6313445;22;20009;-93
2022/11/21 08:14:24;;;;;;;12.52;2.72;;;;;;;;;;6340587;22;19906;-93
2022/11/21 08:16:52;;;;;;;10.52;2.53;;;;;;;;;;6310985;22;20444;-93
2022/11/21 08:19:18;;;;;;;10.85;2.35;;;;;;;;;;6310830;22;20370;-94
2022/11/21 08:21:43;;;;;;;12.57;3.22;;;;;;;;;;6311529;22;20103;-94
2022/11/21 08:24:18;;;;;;;10.98;2.50;;;;;;;;;;6311139;22;20002;-94
2022/11/21 08:26:44;;;;;;;11.90;2.70;;;;;;;;;;6311054;22;20002;-93
2022/11/21 08:29:09;;;;;;;10.13;2.25;;;;;;;;;;6312067;22;20014;-93
2022/11/21 08:31:35;;;;;;;11.10;2.25;;;;;;;;;;6318032;22;19986;-93
2022/11/21 08:34:03;;;;;;;10.23;2.20;;;;;;;;;;6311727;22;20432;-93
2022/11/21 08:36:28;;;;;;;13.02;2.92;;;;;;;;;;6309415;22;20006;-93
2022/11/21 08:38:54;;;;;;;11.20;2.45;;;;;;;;;;6307930;22;20402;-93
2022/11/21 08:44:04;;;;;;;12.30;3.03;;;;;;;;;;6335278;22;20048;-92
2022/11/21 08:46:32;;;;;;;14.13;3.30;;;;;;;;;;6307206;22;20006;-93
2022/11/21 08:48:58;;;;;;;17.48;3.05;;;;;;;;;;6309405;22;20005;-93
2022/11/21 08:51:23;;;;;;;11.23;2.65;;;;;;;;;;6308243;22;20077;-93
2022/11/21 08:53:48;;;;;;;13.52;3.03;;;;;;;;;;6309097;22;20055;-92
2022/11/21 08:56:15;;;;;;;10.18;2.83;;;;;;;;;;6308990;22;20014;-93
2022/11/21 08:58:41;;;;;;;16.35;3.75;;;;;;;;;;6309052;22;20554;-94
2022/11/21 09:01:06;;;;;;;15.88;3.35;;;;;;;;;;6308961;22;20026;-94
2022/11/21 09:03:34;;;;;;;14.25;3.38;;;;;;;;;;6336922;22;20059;-93
2022/11/21 09:06:00;;;;;;;12.88;2.90;;;;;;;;;;6308783;22;20007;-93
2022/11/21 09:08:25;;;;;;;14.85;2.70;;;;;;;;;;6337925;22;20003;-94
2022/11/21 09:11:15;;;;;;;14.18;2.70;;;;;;;;;;6310737;22;20003;-93
2022/11/21 09:13:40;;;;;;;13.35;3.28;;;;;;;;;;6295233;22;20010;-90
2022/11/21 09:19:01;;;;;;;8.68;2.63;;;;;;;;;;6338717;22;20435;-93
2022/11/21 09:21:26;;;;;;;10.10;3.10;;;;;;;;;;6310470;22;19999;-92
2022/11/21 09:23:51;;;;;;;10.57;2.75;;;;;;;;;;6310544;22;20093;-92
2022/11/21 09:26:27;;;;;;;14.23;3.28;;;;;;;;;;6311233;22;19999;-92
2022/11/21 09:29:02;;;;;;;12.07;3.33;;;;;;;;;;6311322;22;20003;-92
2022/11/21 09:31:27;;;;;;;11.68;3.20;;;;;;;;;;6310946;22;19999;-92
2022/11/21 09:33:52;;;;;;;12.48;3.65;;;;;;;;;;6310571;22;20006;-92
2022/11/21 09:36:18;;;;;;;10.38;3.22;;;;;;;;;;6337812;22;20026;-92
2022/11/21 09:38:43;;;;;;;15.68;3.15;;;;;;;;;;6304694;22;20439;-93
2022/11/21 09:44:04;;;;;;;16.38;3.65;;;;;;;;;;6325199;22;20261;-92
2022/11/21 09:46:32;;;;;;;12.82;3.40;;;;;;;;;;6297799;22;20090;-92
2022/11/21 09:49:04;;;;;;;16.02;3.50;;;;;;;;;;6323594;22;20010;-92
2022/11/21 09:51:30;;;;;;;12.65;3.47;;;;;;;;;;6295473;22;20011;-91
2022/11/21 09:53:58;;;;;;;13.23;3.45;;;;;;;;;;6298072;22;20040;-92
2022/11/21 09:56:24;;;;;;;12.35;3.17;;;;;;;;;;6327032;22;20471;-90
2022/11/21 09:58:56;;;;;;;15.60;3.15;;;;;;;;;;6298174;22;20034;-92
2022/11/21 10:01:21;;;;;;;13.57;3.50;;;;;;;;;;6299843;22;20003;-91
2022/11/21 10:03:48;;;;;;;11.18;2.90;;;;;;;;;;6326379;22;20538;-90
2022/11/21 10:06:13;;;;;;;9.95;3.05;;;;;;;;;;6300795;22;20006;-90
2022/11/21 10:08:57;;;;;;;11.03;2.60;;;;;;;;;;6298645;22;20003;-91
2022/11/21 10:11:31;;;;;;;11.77;3.05;;;;;;;;;;6299426;22;20243;-91
2022/11/21 10:14:04;;;;;;;11.40;2.75;;;;;;;;;;6300375;22;20040;-92
2022/11/21 10:16:30;;;;;;;12.80;2.55;;;;;;;;;;6304330;22;20040;-91
2022/11/21 10:19:07;;;;;;;12.23;2.43;;;;;;;;;;6302188;22;20412;-91
2022/11/21 10:21:41;;;;;;;10.18;2.58;;;;;;;;;;6302241;22;20298;-91
2022/11/21 10:24:24;;;;;;;15.00;3.28;;;;;;;;;;6330985;22;20710;-91
2022/11/21 10:26:55;;;;;;;11.63;3.22;;;;;;;;;;6303210;22;20394;-91
2022/11/21 10:29:26;;;;;;;11.38;3.35;;;;;;;;;;6330000;22;20010;-91
2022/11/21 10:31:57;;;;;;;11.95;3.15;;;;;;;;;;6329205;22;20041;-92
2022/11/21 10:34:28;;;;;;;13.25;3.20;;;;;;;;;;6302154;22;20444;-91
2022/11/21 10:36:58;;;;;;;14.82;4.43;;;;;;;;;;6329954;22;20430;-91
2022/11/21 10:39:30;;;;;;;14.10;4.00;;;;;;;;;;6302394;22;20444;-91
2022/11/21 10:41:59;;;;;;;15.68;4.05;;;;;;;;;;6301685;22;20081;-91
2022/11/21 10:47:29;;;;;;;15.23;4.50;;;;;;;;;;6332382;22;20767;-92
2022/11/21 10:50:13;;;;;;;16.52;4.72;;;;;;;;;;6303828;22;20045;-91
2022/11/21 10:52:45;;;;;;;16.73;4.72;;;;;;;;;;6301052;22;20003;-91
2022/11/21 10:55:11;;;;;;;16.40;4.68;;;;;;;;;;6302354;22;20007;-92
2022/11/21 10:57:47;;;;;;;14.43;4.35;;;;;;;;;;6307397;22;20098;-93
2022/11/21 11:00:13;;;;;;;20.98;7.10;;;;;;;;;;6305901;22;20019;-91
2022/11/21 11:03:00;;;;;;;21.90;7.80;;;;;;;;;;6305072;22;20022;-91
2022/11/21 11:05:27;;;;;;;13.45;3.38;;;;;;;;;;6302833;22;20083;-92
2022/11/21 11:07:59;;;;;;;20.95;7.45;;;;;;;;;;6307494;22;20135;-92
2022/11/21 11:10:24;;;;;;;33.83;15.18;;;;;;;;;;6307537;22;20003;-92
2022/11/21 11:15:35;;;;;;;14.60;3.92;;;;;;;;;;6334427;22;20026;-92
2022/11/21 11:18:01;;;;;;;18.45;5.55;;;;;;;;;;6306014;22;19995;-92
2022/11/21 11:20:29;;;;;;;11.15;3.55;;;;;;;;;;6307162;22;19995;-92
2022/11/21 11:22:55;;;;;;;12.75;3.50;;;;;;;;;;6307879;22;19995;-94
2022/11/21 11:25:21;;;;;;;15.93;3.80;;;;;;;;;;6307706;22;20010;-92
2022/11/21 11:27:46;;;;;;;15.38;3.97;;;;;;;;;;6334113;22;20015;-92
2022/11/21 11:30:14;;;;;;;16.52;3.80;;;;;;;;;;6302209;22;19999;-92
2022/11/21 11:32:40;;;;;;;14.60;4.53;;;;;;;;;;6302776;22;20015;-92
2022/11/21 11:35:26;;;;;;;15.00;4.57;;;;;;;;;;6305677;22;20002;-92
2022/11/21 11:38:02;;;;;;;9.48;3.30;;;;;;;;;;6305443;22;19999;-92
2022/11/21 11:40:27;;;;;;;12.98;3.42;;;;;;;;;;6306492;22;20049;-91
2022/11/21 11:48:48;;;;;;;18.27;5.60;;;;;;;;;;6334436;22;20600;-91
2022/11/21 11:51:16;;;;;;;11.95;4.22;;;;;;;;;;6306945;22;19999;-92
2022/11/21 11:53:44;;;;;;;13.30;4.05;;;;;;;;;;6306778;22;19999;-92
2022/11/21 11:56:14;;;;;;;15.35;3.88;;;;;;;;;;6335111;22;20011;-92
2022/11/21 11:58:43;;;;;;;12.77;3.90;;;;;;;;;;6306915;22;20041;-90
2022/11/21 12:01:12;;;;;;;13.32;4.03;;;;;;;;;;6306671;22;20070;-92
2022/11/21 12:03:40;;;;;;;16.88;4.30;;;;;;;;;;6306089;22;20057;-91
2022/11/21 12:06:25;;;;;;;20.75;4.40;;;;;;;;;;6305097;22;20026;-91
2022/11/21 12:09:32;;;;;;;14.82;4.57;;;;;;;;;;6304936;22;20019;-91
2022/11/21 12:12:22;;;;;;;15.05;4.20;;;;;;;;;;6233754;22;20070;-93
2022/11/21 12:17:50;;;;;;;12.85;5.50;;;;;;;;;;6333846;22;20062;-92
2022/11/21 12:20:24;;;;;;;18.10;4.75;;;;;;;;;;6307178;22;20021;-90
2022/11/21 12:22:50;;;;;;;13.95;4.50;;;;;;;;;;6305569;22;20695;-91
2022/11/21 12:25:18;;;;;;;15.95;4.70;;;;;;;;;;6306139;22;20014;-92
2022/11/21 12:28:10;;;;;;;14.10;3.78;;;;;;;;;;6312822;22;20011;-93
2022/11/21 12:30:54;;;;;;;13.52;4.05;;;;;;;;;;6289892;22;19999;-91
2022/11/21 12:33:21;;;;;;;15.63;4.05;;;;;;;;;;6311796;22;20029;-92
2022/11/21 12:36:02;;;;;;;17.30;4.13;;;;;;;;;;6305359;22;20006;-92
2022/11/21 12:38:36;;;;;;;14.73;4.47;;;;;;;;;;6305498;22;20383;-92
2022/11/21 12:42:47;;;;;;;11.73;4.10;;;;;;;;;;6306127;22;20011;-92
2022/11/21 12:44:17;;;;;;;13.88;3.72;;;;;;;;;;6332756;22;20060;-90
2022/11/21 12:47:01;;;;;;;19.23;4.10;;;;;;;;;;6305086;22;20448;-91
2022/11/21 12:55:39;;;;;;;14.60;3.90;;;;;;;;;;6207807;23;20011;-91
2022/11/21 12:58:08;;;;;;;16.20;5.38;;;;;;;;;;6181869;23;20004;-91
2022/11/21 13:00:33;;;;;;;20.60;7.85;;;;;;;;;;6180092;23;20086;-92
2022/11/21 13:03:16;;;;;;;16.97;4.63;;;;;;;;;;6206218;23;20028;-91
2022/11/21 13:05:45;;;;;;;13.35;4.22;;;;;;;;;;6205822;23;20430;-91
2022/11/21 13:08:13;;;;;;;19.98;4.22;;;;;;;;;;6206330;23;20001;-90
2022/11/21 13:10:41;;;;;;;12.32;4.10;;;;;;;;;;6179488;23;20723;-90
2022/11/21 13:13:19;;;;;;;16.15;4.63;;;;;;;;;;6203898;23;20091;-91
2022/11/21 13:15:54;;;;;;;21.20;6.45;;;;;;;;;;6204584;23;20012;-91
2022/11/21 13:18:27;;;;;;;13.77;4.45;;;;;;;;;;6205927;23;20012;-91
2022/11/21 13:20:52;;;;;;;16.80;5.03;;;;;;;;;;6179262;23;20450;-92
2022/11/21 13:23:37;;;;;;;20.63;5.10;;;;;;;;;;6179968;23;20004;-91
2022/11/21 13:26:21;;;;;;;23.25;4.75;;;;;;;;;;6180057;23;20080;-92
2022/11/21 13:28:46;;;;;;;;;;;;;;;;;;6238457;22;20675;-91
2022/11/21 13:31:28;;;;;;;20.40;4.57;;;;;;;;;;6303003;22;19912;-91
2022/11/21 13:33:54;;;;;;;15.57;4.20;;;;;;;;;;6303542;22;20014;-92
2022/11/21 13:36:28;;;;;;;14.18;4.22;;;;;;;;;;6331036;22;20002;-92
2022/11/21 13:38:53;;;;;;;15.98;4.45;;;;;;;;;;6336076;22;20025;-91
2022/11/21 13:44:34;;;;;;;15.02;4.50;;;;;;;;;;6202575;23;20226;-90
2022/11/21 13:47:03;;;;;;;12.93;3.83;;;;;;;;;;6203782;23;20016;-91
2022/11/21 13:49:33;;;;;;;20.67;4.80;;;;;;;;;;6205310;23;20222;-91
2022/11/21 14:09:46;;;;;;;23.17;6.03;;;;;;;;;;6309752;22;20030;-94
2022/11/21 14:18:24;;;;;;;60.95;8.57;;;;;;;;;;6337835;22;20041;-95
2022/11/21 14:20:56;;;;;;;96.97;9.32;;;;;;;;;;6310447;22;20030;-96
2022/11/21 14:23:22;;;;;;;45.38;7.75;;;;;;;;;;6311797;22;19999;-94
2022/11/21 14:26:12;;;;;;;92.28;9.55;;;;;;;;;;6310927;22;20003;-96
2022/11/21 14:28:38;;;;;;;55.45;6.72;;;;;;;;;;6311412;22;20045;-96
2022/11/21 14:31:13;;;;;;;82.90;8.88;;;;;;;;;;6310171;22;20002;-95
2022/11/21 14:33:40;;;;;;;89.13;9.68;;;;;;;;;;6308725;22;20082;-95
2022/11/21 14:36:19;;;;;;;41.78;6.25;;;;;;;;;;6311118;22;20006;-95
2022/11/21 14:38:46;;;;;;;57.58;7.40;;;;;;;;;;6310478;22;20007;-96
2022/11/21 14:41:15;;;;;;;25.73;5.55;;;;;;;;;;6310647;22;20013;-96
2022/11/21 14:43:40;;;;;;;15.05;5.03;;;;;;;;;;6312130;22;19994;-95
2022/11/21 14:46:13;;;;;;;16.23;5.18;;;;;;;;;;6336422;22;20014;-94
2022/11/21 14:48:41;;;;;;;13.67;4.40;;;;;;;;;;6304722;22;20006;-95
2022/11/21 14:51:08;;;;;;;13.23;4.22;;;;;;;;;;6310820;22;20006;-95
2022/11/21 14:53:42;;;;;;;13.00;4.55;;;;;;;;;;6311369;22;20439;-95
2022/11/21 14:56:26;;;;;;;13.43;4.13;;;;;;;;;;6311385;22;20010;-96
2022/11/21 14:58:56;;;;;;;15.35;4.00;;;;;;;;;;6312466;22;20002;-96
2022/11/21 15:01:23;;;;;;;14.60;4.65;;;;;;;;;;6310261;22;20001;-95
2022/11/21 15:03:56;;;;;;;14.77;4.32;;;;;;;;;;6312682;22;20039;-96
2022/11/21 15:06:39;;;;;;;21.92;6.78;;;;;;;;;;6312122;22;20420;-96
2022/11/21 15:09:04;;;;;;;18.90;6.10;;;;;;;;;;6313067;22;20050;-95
2022/11/21 15:11:44;;;;;;;29.05;7.47;;;;;;;;;;6338765;22;20679;-96
2022/11/21 15:14:36;;;;;;;69.32;7.65;;;;;;;;;;6316179;22;20007;-96
2022/11/21 15:17:19;;;;;;;233.73;16.90;;;;;;;;;;6323252;22;19999;-96
2022/11/21 15:19:57;;;;;;;270.42;21.02;;;;;;;;;;6317220;22;19994;-95
2022/11/21 15:22:29;;;;;;;302.23;21.38;;;;;;;;;;6308010;22;20006;-96
2022/11/21 15:25:06;;;;;;;137.55;12.05;;;;;;;;;;6313708;22;19999;-96
2022/11/21 15:27:35;;;;;;;62.45;7.03;;;;;;;;;;6311355;22;20068;-96
2022/11/21 15:30:19;;;;;;;151.85;12.05;;;;;;;;;;6310616;22;20006;-94
2022/11/21 15:35:54;;;;;;;387.92;28.90;;;;;;;;;;6337907;22;20006;-96
2022/11/21 15:38:22;;;;;;;375.90;25.00;;;;;;;;;;6310533;22;20002;-95
2022/11/21 15:40:58;;;;;;;572.38;41.83;;;;;;;;;;6335703;22;20333;-95
2022/11/21 15:43:32;;;;;;;40.38;6.85;;;;;;;;;;6310228;22;20293;-96
2022/11/21 15:46:02;;;;;;;36.05;6.88;;;;;;;;;;6309682;22;20011;-95
2022/11/21 15:48:27;;;;;;;53.70;7.13;;;;;;;;;;6309744;22;20030;-95